Time;durP1;ratioP1;P1;durP2;ratioP2;P2;SDS_P1;SDS_P2;PMS_P1;PMS_P2;Temp;Humidity;BMP_temperature;BMP_pressure;BME280_temperature;BME280_humidity;BME280_pressure;Samples;Min_cycle;Max_cycle;Signal;HPM_P1;HPM_P2
2021/06/01 00:01:42;;;;;;;3.90;2.55;;;512.10;1536.00;;;;;;4850730;29;20097;-83
2021/06/01 00:04:10;;;;;;;3.40;2.45;;;512.10;1536.00;;;;;;4853686;29;20065;-92
2021/06/01 00:06:39;;;;;;;4.05;2.22;;;512.10;1536.00;;;;;;4854488;29;20046;-84
2021/06/01 00:09:08;;;;;;;4.05;2.83;;;512.10;1536.00;;;;;;4850681;29;20051;-90
2021/06/01 00:11:37;;;;;;;3.40;2.70;;;512.10;1536.00;;;;;;4853045;29;20042;-90
2021/06/01 00:14:05;;;;;;;4.78;3.08;;;512.10;1536.00;;;;;;4855045;29;20041;-85
2021/06/01 00:16:31;;;;;;;3.72;2.55;;;512.10;1536.00;;;;;;4852798;29;20053;-86
2021/06/01 00:18:59;;;;;;;4.47;2.72;;;512.10;1536.00;;;;;;4851806;29;20036;-83
2021/06/01 00:21:26;;;;;;;2.75;2.35;;;512.10;1536.00;;;;;;4865489;29;20034;-85
2021/06/01 00:23:54;;;;;;;3.15;2.83;;;512.10;1536.00;;;;;;4886251;29;20025;-83
2021/06/01 00:26:20;;;;;;;3.72;2.90;;;512.10;1536.00;;;;;;4869759;29;20063;-88
2021/06/01 00:28:47;;;;;;;3.42;2.50;;;512.10;1536.00;;;;;;4862997;29;20038;-88
2021/06/01 00:31:14;;;;;;;3.05;2.58;;;512.00;1536.00;;;;;;4859511;29;20037;-89
2021/06/01 00:33:40;;;;;;;4.28;2.95;;;512.00;1536.00;;;;;;4876307;29;20037;-86
2021/06/01 00:36:07;;;;;;;3.65;2.45;;;512.00;1536.00;;;;;;4879152;23;20040;-90
2021/06/01 00:38:34;;;;;;;4.35;2.50;;;512.10;1536.00;;;;;;4875203;29;20037;-89
2021/06/01 00:41:01;;;;;;;3.88;2.38;;;512.00;1536.00;;;;;;4872436;29;20060;-87
2021/06/01 00:43:26;;;;;;;4.18;2.60;;;512.00;1536.00;;;;;;4873891;29;20033;-88
2021/06/01 00:45:52;;;;;;;3.85;2.80;;;512.00;1536.00;;;;;;4873306;29;20094;-90
2021/06/01 00:48:21;;;;;;;3.22;2.85;;;512.00;1536.00;;;;;;4876978;29;20017;-87
2021/06/01 00:50:47;;;;;;;3.10;2.75;;;512.00;1536.00;;;;;;4877083;29;20041;-90
2021/06/01 00:53:13;;;;;;;3.10;2.80;;;512.00;1536.00;;;;;;4869094;29;20554;-91
2021/06/01 00:55:50;;;;;;;2.38;2.00;;;512.00;1536.00;;;;;;4869270;29;20128;-88
2021/06/01 00:58:16;;;;;;;3.85;2.40;;;512.00;1536.00;;;;;;4886558;29;20056;-90
2021/06/01 01:03:19;;;;;;;4.18;3.42;;;512.00;1536.00;;;;;;4888488;29;20061;-90
2021/06/01 01:05:49;;;;;;;3.70;2.72;;;512.00;1561.60;;;;;;4875212;29;20056;-90
2021/06/01 01:11:09;;;;;;;2.80;2.50;;;512.00;1536.00;;;;;;4884725;29;20118;-90
2021/06/01 01:13:47;;;;;;;2.65;2.30;;;512.00;1561.60;;;;;;4872441;29;20485;-89
2021/06/01 01:16:14;;;;;;;3.22;2.75;;;512.00;1536.00;;;;;;4870923;29;20045;-86
2021/06/01 01:18:43;;;;;;;4.78;2.97;;;512.00;1561.60;;;;;;4875369;29;20066;-87
2021/06/01 01:21:25;;;;;;;4.18;2.65;;;512.00;1536.00;;;;;;4872521;29;20041;-85
2021/06/01 01:24:00;;;;;;;4.40;2.57;;;487.30;1561.60;;;;;;4881556;29;20033;-84
2021/06/01 01:26:39;;;;;;;2.67;2.22;;;487.30;1536.00;;;;;;4883495;29;20044;-86
2021/06/01 01:29:16;;;;;;;4.10;2.63;;;512.00;1536.00;;;;;;4880086;29;20504;-86
2021/06/01 01:31:50;;;;;;;2.97;2.60;;;512.00;1536.00;;;;;;4871287;29;20045;-86
2021/06/01 01:34:19;;;;;;;3.60;2.50;;;487.30;1536.00;;;;;;4844815;29;20128;-84
2021/06/01 01:36:46;;;;;;;3.30;3.00;;;487.30;1536.00;;;;;;4869326;29;20071;-86
2021/06/01 01:39:13;;;;;;;3.08;2.60;;;487.30;1536.00;;;;;;4870602;29;20029;-86
2021/06/01 01:41:43;;;;;;;2.88;2.47;;;487.30;1561.60;;;;;;4875185;29;20056;-89
2021/06/01 01:44:16;;;;;;;3.35;2.53;;;487.30;1536.00;;;;;;4854721;29;20041;-84
2021/06/01 01:49:17;;;;;;;3.58;2.85;;;487.30;1536.00;;;;;;4887704;29;20036;-86
2021/06/01 01:51:47;;;;;;;3.33;2.65;;;487.30;1561.60;;;;;;4895228;29;20037;-91
2021/06/01 01:54:22;;;;;;;2.97;2.22;;;487.30;1536.00;;;;;;4894933;29;20033;-88
2021/06/01 01:56:57;;;;;;;2.70;2.35;;;487.30;1536.00;;;;;;4870680;29;20045;-84
2021/06/01 01:59:27;;;;;;;3.03;2.53;;;487.30;1536.00;;;;;;4866225;29;20481;-85
2021/06/01 02:01:54;;;;;;;3.05;2.35;;;487.30;1561.60;;;;;;4865556;29;20041;-86
2021/06/01 02:04:24;;;;;;;3.10;2.50;;;487.30;1536.00;;;;;;4865471;29;20070;-85
2021/06/01 02:06:53;;;;;;;3.85;3.00;;;487.30;1536.00;;;;;;4871483;29;20072;-88
2021/06/01 02:09:20;;;;;;;3.15;2.45;;;487.30;1536.00;;;;;;4872590;29;20041;-87
2021/06/01 02:11:46;;;;;;;4.80;2.55;;;487.30;1561.60;;;;;;4870829;29;20047;-89
2021/06/01 02:14:25;;;;;;;3.20;2.53;;;487.30;1561.60;;;;;;4873742;29;20033;-85
2021/06/01 02:16:52;;;;;;;3.28;2.13;;;512.00;1536.00;;;;;;4870953;29;20087;-82
2021/06/01 02:19:20;;;;;;;4.97;2.67;;;487.30;1536.00;;;;;;4866976;29;20062;-86
2021/06/01 02:24:56;;;;;;;2.47;2.15;;;512.00;1561.60;;;;;;4883636;29;20041;-86
2021/06/01 02:27:57;;;;;;;2.63;2.42;;;487.30;1561.60;;;;;;4829217;29;20042;-84
2021/06/01 02:30:28;;;;;;;3.38;2.70;;;487.30;1561.60;;;;;;4808046;29;20039;-83
2021/06/01 02:32:59;;;;;;;2.83;2.20;;;487.30;1561.60;;;;;;4795188;29;20035;-84
2021/06/01 02:35:41;;;;;;;2.83;2.42;;;487.30;1561.60;;;;;;4798818;29;20110;-88
2021/06/01 02:38:10;;;;;;;3.30;2.50;;;487.30;1561.60;;;;;;4792788;29;20489;-84
2021/06/01 02:40:37;;;;;;;3.53;2.47;;;487.30;1561.60;;;;;;4795653;29;20591;-83
2021/06/01 02:43:09;;;;;;;5.75;3.30;;;487.30;1561.60;;;;;;4791863;29;20064;-89
2021/06/01 02:45:38;;;;;;;3.35;2.70;;;487.30;1561.60;;;;;;4791784;29;20129;-84
2021/06/01 02:48:09;;;;;;;4.47;3.05;;;487.30;1561.60;;;;;;4798287;29;20042;-83
2021/06/01 02:50:36;;;;;;;3.45;2.70;;;487.30;1561.60;;;;;;4806139;29;20043;-87
2021/06/01 02:53:03;;;;;;;3.97;2.88;;;487.30;1561.60;;;;;;4796562;29;20074;-83
2021/06/01 02:55:29;;;;;;;3.03;2.40;;;487.30;1561.60;;;;;;4802326;29;20087;-83
2021/06/01 02:57:56;;;;;;;3.78;2.78;;;487.30;1561.60;;;;;;4820031;29;20076;-83
2021/06/01 03:00:25;;;;;;;4.75;3.03;;;487.30;1561.60;;;;;;4799521;29;20496;-85
2021/06/01 03:02:53;;;;;;;2.80;2.17;;;487.30;1561.60;;;;;;4809129;29;20114;-85
2021/06/01 03:05:20;;;;;;;2.85;2.38;;;487.30;1561.60;;;;;;4794258;29;20549;-83
2021/06/01 03:07:56;;;;;;;3.10;2.40;;;487.30;1561.60;;;;;;4833169;29;20052;-84
2021/06/01 03:10:24;;;;;;;3.25;2.28;;;487.20;1561.60;;;;;;4850815;29;20112;-88
2021/06/01 03:12:56;;;;;;;2.45;2.22;;;487.30;1561.60;;;;;;4853654;29;20128;-86
2021/06/01 03:15:24;;;;;;;3.63;2.58;;;487.30;1561.60;;;;;;4856868;29;20042;-83
2021/06/01 03:17:49;;;;;;;3.22;2.85;;;487.30;1561.60;;;;;;4857476;29;20042;-90
2021/06/01 03:20:15;;;;;;;3.22;2.22;;;487.30;1561.60;;;;;;4855677;29;20034;-88
2021/06/01 03:22:42;;;;;;;2.72;2.28;;;487.30;1561.60;;;;;;4873912;29;20042;-87
2021/06/01 03:25:09;;;;;;;2.92;2.13;;;487.30;1561.60;;;;;;4843099;29;20113;-88
2021/06/01 03:27:35;;;;;;;3.33;2.40;;;487.30;1561.60;;;;;;4858242;29;20033;-85
2021/06/01 03:30:01;;;;;;;3.22;2.33;;;487.30;1561.60;;;;;;4861372;29;20041;-84
2021/06/01 03:32:27;;;;;;;3.13;2.28;;;487.30;1561.60;;;;;;4859037;29;20047;-90
2021/06/01 03:34:54;;;;;;;2.90;2.55;;;487.30;1561.60;;;;;;4856303;29;20077;-85
2021/06/01 03:37:20;;;;;;;3.20;2.80;;;487.30;1561.60;;;;;;4863192;29;20144;-87
2021/06/01 03:39:45;;;;;;;2.70;2.17;;;487.30;1561.60;;;;;;4845282;29;20125;-84
2021/06/01 03:42:12;;;;;;;2.88;2.03;;;487.30;1561.60;;;;;;4854241;29;20017;-87
2021/06/01 03:44:43;;;;;;;4.25;2.15;;;487.30;1561.60;;;;;;4863386;29;20042;-83
2021/06/01 03:47:09;;;;;;;4.40;2.35;;;487.30;1561.60;;;;;;4847516;29;20518;-83
2021/06/01 03:49:35;;;;;;;2.97;2.60;;;487.30;1561.60;;;;;;4847420;29;20070;-85
2021/06/01 03:52:06;;;;;;;2.10;1.83;;;487.30;1561.60;;;;;;4848460;29;20033;-84
2021/06/01 03:54:33;;;;;;;2.92;2.08;;;487.30;1536.00;;;;;;4855740;29;20022;-87
2021/06/01 03:56:59;;;;;;;2.40;2.10;;;487.30;1561.60;;;;;;4849877;29;20419;-84
2021/06/01 03:59:25;;;;;;;3.33;2.45;;;487.30;1561.60;;;;;;4877418;29;20029;-87
2021/06/01 04:01:51;;;;;;;2.83;2.22;;;487.30;1536.00;;;;;;4857924;29;20047;-87
2021/06/01 04:04:17;;;;;;;3.17;2.55;;;487.30;1561.60;;;;;;4864773;29;20454;-88
2021/06/01 04:06:42;;;;;;;3.67;2.83;;;487.30;1536.00;;;;;;4888770;29;20037;-83
2021/06/01 04:09:08;;;;;;;3.67;2.97;;;487.30;1536.00;;;;;;4872972;29;20033;-82
2021/06/01 04:11:34;;;;;;;3.33;2.28;;;487.30;1536.00;;;;;;4874698;29;20041;-84
2021/06/01 04:14:00;;;;;;;2.50;2.20;;;487.30;1536.00;;;;;;4874230;29;20692;-82
2021/06/01 04:16:27;;;;;;;2.90;2.28;;;487.30;1536.00;;;;;;4870148;29;20409;-91
2021/06/01 04:18:52;;;;;;;2.72;2.28;;;487.30;1536.00;;;;;;4883289;29;20037;-84
2021/06/01 04:21:18;;;;;;;2.85;2.55;;;487.30;1536.00;;;;;;4875490;29;20041;-83
2021/06/01 04:23:44;;;;;;;2.70;2.13;;;487.30;1536.00;;;;;;4874674;29;20401;-82
2021/06/01 04:26:10;;;;;;;3.20;2.20;;;487.30;1536.00;;;;;;4857183;29;20113;-82
2021/06/01 04:28:35;;;;;;;2.95;2.30;;;487.30;1536.00;;;;;;4860993;29;20080;-83
2021/06/01 04:31:01;;;;;;;3.75;2.75;;;487.30;1536.00;;;;;;4885967;29;20069;-84
2021/06/01 04:33:27;;;;;;;3.85;2.30;;;487.30;1536.00;;;;;;4862550;29;20038;-84
2021/06/01 04:35:52;;;;;;;4.38;2.58;;;487.30;1536.00;;;;;;4876179;29;20072;-84
2021/06/01 04:38:18;;;;;;;3.20;2.17;;;512.00;1536.00;;;;;;4865874;29;20013;-85
2021/06/01 04:40:47;;;;;;;3.08;2.30;;;512.00;1536.00;;;;;;4855349;29;20033;-84
2021/06/01 04:43:13;;;;;;;2.47;2.13;;;512.00;1561.60;;;;;;4859554;29;20507;-85
2021/06/01 04:45:38;;;;;;;4.47;2.60;;;512.00;1536.00;;;;;;4853653;29;20036;-86
2021/06/01 04:48:16;;;;;;;3.13;2.13;;;512.00;1536.00;;;;;;4856185;29;20070;-85
2021/06/01 04:53:12;;;;;;;2.75;2.25;;;512.00;1536.00;;;;;;4850187;29;20115;-85
2021/06/01 04:55:38;;;;;;;2.97;2.22;;;512.00;1536.00;;;;;;4826208;29;20050;-82
2021/06/01 04:58:04;;;;;;;3.85;2.10;;;512.00;1536.00;;;;;;4826160;29;20046;-85
2021/06/01 05:00:29;;;;;;;3.20;2.30;;;512.00;1536.00;;;;;;4825805;29;20034;-84
2021/06/01 05:02:55;;;;;;;3.53;2.53;;;512.00;1536.00;;;;;;4826544;29;20045;-82
2021/06/01 05:05:21;;;;;;;3.80;2.10;;;512.10;1536.00;;;;;;4826474;29;20038;-84
2021/06/01 05:07:46;;;;;;;3.17;2.40;;;512.10;1536.00;;;;;;4827749;29;20042;-83
2021/06/01 05:10:13;;;;;;;4.30;2.70;;;512.10;1536.00;;;;;;4819378;29;20556;-82
2021/06/01 05:12:39;;;;;;;3.17;2.17;;;512.10;1536.00;;;;;;4812552;29;20050;-83
2021/06/01 05:15:07;;;;;;;4.22;2.35;;;512.20;1536.00;;;;;;4812629;29;20134;-83
2021/06/01 05:17:32;;;;;;;3.17;2.25;;;512.20;1536.00;;;;;;4812189;29;20054;-85
2021/06/01 05:19:58;;;;;;;2.38;2.00;;;512.20;1536.00;;;;;;4812114;29;20038;-84
2021/06/01 05:22:24;;;;;;;3.40;2.00;;;512.20;1536.00;;;;;;4811577;29;20050;-83
2021/06/01 05:24:50;;;;;;;3.30;2.65;;;512.20;1510.40;;;;;;4811536;29;20035;-84
2021/06/01 05:27:16;;;;;;;2.90;2.50;;;512.30;1510.40;;;;;;4811601;29;20042;-83
2021/06/01 05:29:55;;;;;;;2.83;2.17;;;512.30;1510.40;;;;;;4811630;29;20042;-85
2021/06/01 05:35:01;;;;;;;2.90;1.90;;;512.40;1510.40;;;;;;4842269;29;20049;-83
2021/06/01 05:37:35;;;;;;;2.30;1.90;;;512.50;1510.40;;;;;;4826802;29;20053;-83
2021/06/01 05:40:04;;;;;;;5.38;2.22;;;512.50;1510.40;;;;;;4816436;29;20038;-83
2021/06/01 05:42:29;;;;;;;2.75;2.13;;;512.60;1484.80;;;;;;4812153;29;20042;-89
2021/06/01 05:44:55;;;;;;;2.10;1.90;;;512.60;1484.80;;;;;;4814080;29;20038;-83
2021/06/01 05:47:21;;;;;;;3.45;1.90;;;512.60;1484.80;;;;;;4812220;29;20034;-85
2021/06/01 05:49:47;;;;;;;4.45;2.03;;;512.60;1484.80;;;;;;4814060;29;20042;-89
2021/06/01 05:52:12;;;;;;;5.13;2.25;;;512.60;1484.80;;;;;;4922464;24;20113;-84
2021/06/01 05:54:38;;;;;;;3.50;2.20;;;512.60;1484.80;;;;;;4847900;29;20041;-83
2021/06/01 05:57:06;;;;;;;2.88;2.28;;;512.60;1484.80;;;;;;4849295;29;20390;-88
2021/06/01 05:59:34;;;;;;;2.08;1.83;;;512.60;1484.80;;;;;;4862559;29;20033;-89
2021/06/01 06:02:03;;;;;;;3.05;2.17;;;512.60;1484.80;;;;;;4853277;29;20406;-84
2021/06/01 06:04:29;;;;;;;2.72;2.25;;;512.70;1484.80;;;;;;4848360;29;20045;-84
2021/06/01 06:06:54;;;;;;;2.40;2.15;;;512.70;1484.80;;;;;;4847006;29;20154;-85
2021/06/01 06:09:20;;;;;;;2.75;2.08;;;512.80;1484.80;;;;;;4848882;29;20395;-86
2021/06/01 06:11:46;;;;;;;3.15;2.40;;;512.80;1484.80;;;;;;4846145;29;20048;-83
2021/06/01 06:14:12;;;;;;;3.35;2.40;;;512.80;1484.80;;;;;;4841494;29;20551;-85
2021/06/01 06:16:54;;;;;;;3.30;2.00;;;512.80;1484.80;;;;;;4846827;29;20049;-89
2021/06/01 06:19:20;;;;;;;2.42;1.85;;;512.80;1484.80;;;;;;4867335;29;20209;-84
2021/06/01 06:21:46;;;;;;;2.97;2.20;;;512.70;1484.80;;;;;;4848359;29;20044;-85
2021/06/01 06:24:12;;;;;;;3.30;2.30;;;512.70;1459.20;;;;;;4845513;29;20057;-86
2021/06/01 06:26:42;;;;;;;3.05;1.90;;;512.80;1484.80;;;;;;4855899;29;20607;-84
2021/06/01 06:29:14;;;;;;;2.70;2.08;;;512.80;1459.20;;;;;;4834197;29;20038;-90
2021/06/01 06:31:40;;;;;;;2.17;1.80;;;512.90;1459.20;;;;;;4845324;29;20046;-83
2021/06/01 06:34:06;;;;;;;3.78;1.77;;;512.90;1459.20;;;;;;4846018;29;20045;-89
2021/06/01 06:36:32;;;;;;;2.28;1.85;;;537.60;1484.80;;;;;;4846059;29;20073;-81
2021/06/01 06:38:57;;;;;;;2.85;2.42;;;537.60;1484.80;;;;;;4843115;29;20158;-85
2021/06/01 06:41:27;;;;;;;2.50;2.20;;;537.70;1484.80;;;;;;4848187;29;20045;-82
2021/06/01 06:43:53;;;;;;;3.45;1.90;;;537.80;1484.80;;;;;;4846644;29;20056;-82
2021/06/01 06:46:42;;;;;;;3.72;2.70;;;537.90;1459.20;;;;;;4845913;29;20037;-84
2021/06/01 06:49:09;;;;;;;3.55;2.00;;;512.60;1382.40;;;;;;4816818;29;20052;-85
2021/06/01 06:51:39;;;;;;;5.53;3.10;;;512.30;1408.00;;;;;;4830629;29;20078;-84
2021/06/01 06:54:05;;;;;;;3.65;2.42;;;487.30;1408.00;;;;;;4850098;29;20041;-86
2021/06/01 06:56:31;;;;;;;2.97;2.20;;;487.20;1433.60;;;;;;4847872;29;20050;-84
2021/06/01 06:58:58;;;;;;;7.63;2.53;;;487.30;1459.20;;;;;;4846737;29;20040;-84
2021/06/01 07:01:25;;;;;;;6.43;2.72;;;512.20;1459.20;;;;;;4845949;29;20045;-82
2021/06/01 07:03:52;;;;;;;3.33;2.40;;;512.30;1484.80;;;;;;4845158;29;20038;-81
2021/06/01 07:06:20;;;;;;;3.88;2.85;;;512.40;1408.00;;;;;;4847951;29;20144;-80
2021/06/01 07:08:46;;;;;;;3.58;2.25;;;512.30;1408.00;;;;;;4846170;29;20132;-81
2021/06/01 07:11:12;;;;;;;4.90;2.60;;;512.00;1459.20;;;;;;4846810;29;20133;-82
2021/06/01 07:14:07;;;;;;;3.33;2.35;;;487.30;1484.80;;;;;;4859857;29;20033;-81
2021/06/01 07:16:33;;;;;;;3.20;2.45;;;512.10;1433.60;;;;;;4819465;29;20053;-81
2021/06/01 07:18:59;;;;;;;2.60;2.28;;;512.10;1433.60;;;;;;4815742;29;20046;-81
2021/06/01 07:21:25;;;;;;;5.97;2.72;;;512.10;1459.20;;;;;;4803126;29;20042;-80
2021/06/01 07:23:50;;;;;;;7.15;5.53;;;487.20;1484.80;;;;;;4797249;29;20470;-80
2021/06/01 07:26:16;;;;;;;7.03;3.35;;;487.00;1484.80;;;;;;4790442;29;20134;-82
2021/06/01 07:28:42;;;;;;;3.88;3.03;;;486.90;1484.80;;;;;;4809448;29;20027;-82
2021/06/01 07:31:13;;;;;;;5.75;3.75;;;486.60;1459.20;;;;;;4790643;29;20050;-82
2021/06/01 07:33:39;;;;;;;6.25;4.57;;;486.80;1510.40;;;;;;4790296;29;20096;-81
2021/06/01 07:36:04;;;;;;;5.22;2.78;;;487.00;1484.80;;;;;;4794183;29;20046;-81
2021/06/01 07:38:30;;;;;;;5.30;2.70;;;512.10;1484.80;;;;;;4790741;29;20083;-81
2021/06/01 07:40:56;;;;;;;5.75;2.75;;;487.30;1459.20;;;;;;4790401;29;20043;-81
2021/06/01 07:43:22;;;;;;;3.92;2.67;;;487.30;1484.80;;;;;;4811185;29;20068;-80
2021/06/01 07:45:48;;;;;;;2.75;2.22;;;486.90;1459.20;;;;;;4800290;29;20050;-82
2021/06/01 07:48:14;;;;;;;5.28;2.90;;;486.60;1510.40;;;;;;4794895;29;20046;-80
2021/06/01 07:50:40;;;;;;;4.90;2.80;;;486.50;1536.00;;;;;;4797135;29;20397;-82
2021/06/01 07:53:05;;;;;;;8.48;3.10;;;461.70;1561.60;;;;;;4803196;29;20073;-83
2021/06/01 07:55:32;;;;;;;4.97;2.85;;;461.60;1536.00;;;;;;4827251;29;20169;-83
2021/06/01 07:57:58;;;;;;;3.60;2.83;;;461.50;1587.20;;;;;;4830088;29;20038;-92
2021/06/01 08:00:26;;;;;;;5.78;2.95;;;461.40;1536.00;;;;;;4828867;29;20044;-84
2021/06/01 08:03:15;;;;;;;;;;;;;;;;;;;;;
2021/06/01 08:05:41;;;;;;;8.18;3.38;;;461.60;1536.00;;;;;;4863833;29;20104;-90
2021/06/01 08:08:16;;;;;;;6.82;3.40;;;461.50;1561.60;;;;;;4854996;29;20080;-93
2021/06/01 08:10:41;;;;;;;4.60;3.13;;;486.40;1587.20;;;;;;4853568;29;20044;-92
2021/06/01 08:13:16;;;;;;;6.28;3.25;;;486.40;1536.00;;;;;;4856566;29;20069;-88
2021/06/01 08:15:52;;;;;;;10.02;3.55;;;461.50;1561.60;;;;;;4862350;29;20057;-91
2021/06/01 08:18:41;;;;;;;3.67;2.75;;;486.40;1587.20;;;;;;4865025;29;20045;-89
2021/06/01 08:21:17;;;;;;;5.05;3.20;;;486.50;1561.60;;;;;;4858340;29;20041;-93
2021/06/01 08:23:42;;;;;;;3.97;3.00;;;486.40;1561.60;;;;;;4853739;29;20054;-92
2021/06/01 08:26:08;;;;;;;5.85;2.88;;;486.40;1510.40;;;;;;4853147;29;20487;-90
2021/06/01 08:28:37;;;;;;;6.38;3.55;;;486.40;1510.40;;;;;;4909869;24;20017;-88
2021/06/01 08:31:04;;;;;;;3.85;3.03;;;461.60;1536.00;;;;;;4850676;29;20156;-89
2021/06/01 08:39:26;;;;;;;9.85;3.72;;;486.90;1510.40;;;;;;4898289;24;20062;-92
2021/06/01 08:45:18;;;;;;;8.23;3.00;;;486.90;1510.40;;;;;;4994483;24;20058;-92
2021/06/01 08:47:48;;;;;;;18.13;4.63;;;486.80;1459.20;;;;;;4850934;29;20450;-88
2021/06/01 08:53:00;;;;;;;6.80;2.97;;;487.30;1484.80;;;;;;4869111;29;20030;-93
2021/06/01 08:57:51;;;;;;;5.95;4.95;;;487.30;1459.20;;;;;;4876649;23;20396;-90
2021/06/01 09:00:17;;;;;;;6.50;3.65;;;486.90;1459.20;;;;;;4852342;29;20145;-90
2021/06/01 09:03:22;;;;;;;3.67;2.97;;;486.80;1433.60;;;;;;4850821;29;20379;-88
2021/06/01 09:23:56;;;;;;;5.03;3.50;;;486.70;1510.40;;;;;;4868455;23;20053;-93
2021/06/01 09:27:01;;;;;;;3.60;3.17;;;486.90;1510.40;;;;;;4846877;29;20058;-86
2021/06/01 09:29:31;;;;;;;7.43;3.10;;;487.00;1484.80;;;;;;4809680;29;20470;-94
2021/06/01 09:32:11;;;;;;;5.20;3.08;;;487.20;1459.20;;;;;;4811886;29;20065;-94
2021/06/01 09:34:58;;;;;;;3.83;2.90;;;512.00;1433.60;;;;;;4810529;29;20065;-91
2021/06/01 09:37:42;;;;;;;5.55;3.53;;;512.30;1433.60;;;;;;4760025;30;20048;-93
2021/06/01 09:40:21;;;;;;;4.57;2.97;;;512.60;1382.40;;;;;;4825130;24;20049;-94
2021/06/01 09:43:13;;;;;;;3.75;3.03;;;512.60;1382.40;;;;;;4882687;29;20072;-89
2021/06/01 09:45:48;;;;;;;3.80;3.07;;;537.70;1408.00;;;;;;4900044;29;20037;-94
2021/06/01 09:54:58;;;;;;;4.63;2.72;;;512.60;1305.60;;;;;;5008260;24;20049;-89
2021/06/01 09:57:53;;;;;;;6.82;2.90;;;512.40;1331.20;;;;;;4863160;29;20082;-89
2021/06/01 10:00:31;;;;;;;6.85;3.00;;;512.90;1331.20;;;;;;4873080;29;20040;-92
2021/06/01 10:06:17;;;;;;;7.22;3.53;;;512.20;1382.40;;;;;;4840192;29;20033;-89
2021/06/01 10:09:01;;;;;;;9.40;3.25;;;512.00;1408.00;;;;;;4856255;29;20091;-88
2021/06/01 10:11:30;;;;;;;5.68;3.30;;;487.30;1433.60;;;;;;4854570;29;20042;-93
2021/06/01 10:13:59;;;;;;;6.80;3.25;;;512.10;1408.00;;;;;;4843415;29;20070;-93
2021/06/01 10:16:28;;;;;;;9.65;3.20;;;512.00;1408.00;;;;;;4845927;29;20115;-95
2021/06/01 10:18:54;;;;;;;5.55;2.95;;;512.10;1408.00;;;;;;4844265;29;20428;-91
2021/06/01 10:21:28;;;;;;;4.93;3.17;;;512.00;1408.00;;;;;;4845420;29;20049;-95
2021/06/01 10:23:55;;;;;;;7.63;3.10;;;487.30;1382.40;;;;;;4817731;29;20045;-92
2021/06/01 10:31:27;;;;;;;6.38;2.80;;;512.50;1305.60;;;;;;4882500;23;20526;-92
2021/06/01 10:51:41;;;;;;;6.80;2.85;;;512.40;1331.20;;;;;;4899370;23;20068;-91
2021/06/01 10:54:49;;;;;;;7.00;3.10;;;512.70;1305.60;;;;;;4874685;29;20069;-90
2021/06/01 10:57:53;;;;;;;5.07;3.05;;;512.80;1305.60;;;;;;4878058;24;20080;-86
2021/06/01 11:09:33;;;;;;;5.88;3.10;;;512.80;1305.60;;;;;;4871318;29;20026;-91
2021/06/01 11:19:01;;;;;;;4.88;3.47;;;538.30;1280.00;;;;;;4869909;29;20065;-87
2021/06/01 11:34:10;;;;;;;4.72;3.85;;;563.90;1254.40;;;;;;4878630;29;20464;-87
2021/06/01 11:43:20;;;;;;;5.05;3.60;;;563.70;1228.80;;;;;;5286611;23;20065;-90
2021/06/01 12:32:51;;;;;;;14.45;9.40;;;486.70;1664.00;;;;;;5821755;23;20856;-91
2021/06/01 12:44:16;;;;;;;8.85;5.38;;;563.50;1459.20;;;;;;4904000;29;20068;-93
2021/06/01 15:22:51;;;;;;;7.68;4.68;;;666.50;972.80;;;;;;4858632;29;20057;-88
2021/06/01 15:50:40;;;;;;;4.88;2.95;;;691.40;947.20;;;;;;4876761;29;20042;-93
2021/06/01 16:14:43;;;;;;;6.40;3.40;;;640.30;1024.00;;;;;;4848102;29;20033;-83
2021/06/01 16:23:10;;;;;;;6.03;3.83;;;614.40;1126.40;;;;;;4857137;29;20089;-91
2021/06/01 16:44:07;;;;;;;4.43;3.30;;;563.60;1203.20;;;;;;4867038;29;20080;-89
2021/06/01 17:11:01;;;;;;;4.57;3.65;;;538.00;1305.60;;;;;;4849820;29;19920;-91
2021/06/01 17:12:11;;;;;;;6.65;3.60;;;537.60;1280.00;;;;;;4794112;29;20035;-90
2021/06/01 17:14:48;;;;;;;7.50;4.38;;;512.90;1305.60;;;;;;4778635;30;20068;-91
2021/06/01 17:54:51;;;;;;;6.88;4.90;;;487.20;1408.00;;;;;;4855914;29;20052;-92
2021/06/01 17:57:18;;;;;;;11.20;5.78;;;486.90;1433.60;;;;;;4840091;29;20087;-92
2021/06/01 18:00:09;;;;;;;12.40;6.32;;;486.80;1433.60;;;;;;4838380;29;20038;-92
2021/06/01 18:02:38;;;;;;;9.82;6.18;;;486.70;1459.20;;;;;;4854968;29;20045;-94
2021/06/01 19:49:59;;;;;;;20.80;14.32;;;436.00;1689.60;;;;;;4982763;23;20112;-90
2021/06/01 19:52:32;;;;;;;25.70;14.88;;;435.90;1664.00;;;;;;4817610;29;20031;-89
2021/06/01 19:58:06;;;;;;;18.63;14.32;;;435.90;1715.20;;;;;;4888091;24;21533;-90
2021/06/01 20:03:33;;;;;;;17.73;10.70;;;435.70;1715.20;;;;;;5059274;23;20060;-89
2021/06/01 20:06:38;;;;;;;18.27;11.25;;;435.70;1715.20;;;;;;4943628;23;20069;-91
2021/06/01 20:11:47;;;;;;;15.05;10.27;;;435.50;1740.80;;;;;;4848451;23;20384;-90
2021/06/01 20:14:16;;;;;;;17.88;12.82;;;435.30;1740.80;;;;;;4823042;29;20044;-92
2021/06/01 20:16:52;;;;;;;32.45;22.20;;;435.30;1740.80;;;;;;4825810;29;20042;-93
2021/06/01 20:19:22;;;;;;;20.42;13.55;;;435.30;1740.80;;;;;;4824423;29;20041;-89
2021/06/01 20:21:52;;;;;;;11.68;8.38;;;435.20;1740.80;;;;;;4832437;29;20038;-88
2021/06/01 20:24:19;;;;;;;14.38;8.40;;;410.40;1792.00;;;;;;4834886;29;20065;-89
2021/06/01 20:26:47;;;;;;;10.65;7.30;;;410.20;1817.60;;;;;;4838972;29;20133;-88
2021/06/01 20:29:37;;;;;;;13.20;9.07;;;410.10;1817.60;;;;;;4841196;29;20037;-87
2021/06/01 20:38:03;;;;;;;19.73;12.35;;;409.80;1868.80;;;;;;4833982;29;20617;-91
2021/06/01 20:40:29;;;;;;;15.05;10.10;;;409.80;1843.20;;;;;;4843953;29;20046;-88
2021/06/01 20:43:31;;;;;;;18.58;9.48;;;410.00;1868.80;;;;;;4850979;29;20376;-87
2021/06/01 20:45:58;;;;;;;19.65;9.27;;;409.60;1920.00;;;;;;4776085;30;20073;-86
2021/06/01 20:48:25;;;;;;;21.73;13.70;;;384.90;1894.40;;;;;;4778680;30;20028;-88
2021/06/01 20:54:17;;;;;;;14.63;10.43;;;384.70;1920.00;;;;;;4786689;30;20051;-89
2021/06/01 20:56:47;;;;;;;15.48;10.88;;;384.50;1945.60;;;;;;4764702;30;20066;-90
2021/06/01 20:59:36;;;;;;;18.08;12.05;;;384.40;1971.20;;;;;;4816245;23;20044;-91
2021/06/01 21:02:12;;;;;;;12.25;9.93;;;384.40;1971.20;;;;;;4842140;24;20058;-88
2021/06/01 21:04:47;;;;;;;18.50;11.10;;;384.40;1971.20;;;;;;4862937;24;20079;-90
2021/06/01 21:07:14;;;;;;;19.25;10.02;;;384.30;1996.80;;;;;;4852621;29;20113;-88
2021/06/01 21:12:29;;;;;;;18.45;11.88;;;384.20;1996.80;;;;;;4967571;23;20503;-90
2021/06/01 21:14:55;;;;;;;20.08;12.77;;;384.20;2022.40;;;;;;4854148;29;20045;-90
2021/06/01 21:20:08;;;;;;;24.00;14.90;;;384.10;2048.00;;;;;;5009734;23;20062;-88
2021/06/01 21:22:36;;;;;;;19.80;13.60;;;384.10;2073.60;;;;;;4853894;29;20125;-90
2021/06/01 21:25:08;;;;;;;20.83;13.02;;;359.30;2099.20;;;;;;4833798;29;20052;-88
2021/06/01 21:27:34;;;;;;;21.10;11.87;;;359.20;2124.80;;;;;;4831207;29;20495;-86
2021/06/01 21:33:41;;;;;;;16.30;9.95;;;359.00;2176.00;;;;;;4913858;23;20517;-90
2021/06/01 21:36:19;;;;;;;17.35;9.60;;;358.90;2176.00;;;;;;4874799;29;20041;-89
2021/06/01 21:38:51;;;;;;;15.75;8.57;;;358.90;2176.00;;;;;;4877509;24;20541;-90
2021/06/01 21:52:55;;;;;;;15.90;9.70;;;358.50;2227.20;;;;;;5107445;23;20428;-89
2021/06/01 21:55:26;;;;;;;19.15;11.90;;;358.40;2278.40;;;;;;4842075;29;20113;-91
2021/06/01 22:01:06;;;;;;;19.73;11.95;;;333.50;2329.60;;;;;;5122942;23;20069;-92
2021/06/01 22:03:47;;;;;;;18.17;11.55;;;333.50;2329.60;;;;;;4897650;24;20072;-92
2021/06/01 22:06:13;;;;;;;17.10;10.95;;;333.40;2329.60;;;;;;4986027;24;20147;-90
2021/06/01 22:08:52;;;;;;;14.90;9.32;;;333.40;2329.60;;;;;;4885554;29;20100;-93
2021/06/01 22:13:45;;;;;;;20.58;11.82;;;333.60;2304.00;;;;;;4964568;23;20067;-90
2021/06/01 22:16:29;;;;;;;14.27;10.27;;;333.40;2304.00;;;;;;4880698;29;20120;-88
2021/06/01 22:27:58;;;;;;;17.73;10.25;;;333.50;2329.60;;;;;;4877413;24;20060;-90
2021/06/01 22:30:31;;;;;;;17.65;11.90;;;333.40;2329.60;;;;;;4855338;29;20045;-91
2021/06/01 22:36:25;;;;;;;17.92;11.65;;;333.30;2329.60;;;;;;4875086;29;20513;-90
2021/06/01 22:41:33;;;;;;;17.67;12.40;;;333.20;2329.60;;;;;;4997528;23;20057;-91
2021/06/01 22:44:16;;;;;;;19.60;12.80;;;333.20;2329.60;;;;;;5039766;23;20024;-90
2021/06/01 22:55:32;;;;;;;18.40;11.93;;;308.10;2304.00;;;;;;5473852;23;20056;-90
2021/06/01 23:12:14;;;;;;;18.77;11.00;;;307.90;2304.00;;;;;;4885537;23;20066;-91
2021/06/01 23:14:41;;;;;;;19.20;11.05;;;308.00;2304.00;;;;;;4865926;29;20038;-90
2021/06/01 23:19:52;;;;;;;20.35;13.00;;;308.00;2304.00;;;;;;5586963;23;20053;-90
2021/06/01 23:22:48;;;;;;;16.63;9.57;;;308.10;2304.00;;;;;;4864960;29;20057;-89